sensor_id;sensor_type;location;lat;lon;timestamp;temperature;humidity
4209;DHT22;36320;48.860;2.380;2023-01-01T00:01:14;17.60;59.00
4209;DHT22;36320;48.860;2.380;2023-01-01T00:03:40;17.60;59.20
4209;DHT22;36320;48.860;2.380;2023-01-01T00:06:12;17.60;59.40
4209;DHT22;36320;48.860;2.380;2023-01-01T00:08:38;17.60;59.70
4209;DHT22;36320;48.860;2.380;2023-01-01T00:11:06;17.60;59.70
4209;DHT22;36320;48.860;2.380;2023-01-01T00:13:33;17.60;59.80
4209;DHT22;36320;48.860;2.380;2023-01-01T00:16:10;17.60;60.00
4209;DHT22;36320;48.860;2.380;2023-01-01T00:18:36;17.50;60.20
4209;DHT22;36320;48.860;2.380;2023-01-01T00:21:10;17.70;60.30
4209;DHT22;36320;48.860;2.380;2023-01-01T00:23:37;17.60;60.40
4209;DHT22;36320;48.860;2.380;2023-01-01T00:26:11;17.60;60.70
4209;DHT22;36320;48.860;2.380;2023-01-01T00:28:37;17.50;61.00
4209;DHT22;36320;48.860;2.380;2023-01-01T00:31:13;17.50;61.20
4209;DHT22;36320;48.860;2.380;2023-01-01T00:33:41;17.60;61.30
4209;DHT22;36320;48.860;2.380;2023-01-01T00:36:12;17.60;61.10
4209;DHT22;36320;48.860;2.380;2023-01-01T00:38:38;17.60;61.30
4209;DHT22;36320;48.860;2.380;2023-01-01T00:41:04;17.60;61.50
4209;DHT22;36320;48.860;2.380;2023-01-01T00:43:30;17.50;61.60
4209;DHT22;36320;48.860;2.380;2023-01-01T00:45:56;17.30;61.50
4209;DHT22;36320;48.860;2.380;2023-01-01T00:48:23;17.60;62.00
4209;DHT22;36320;48.860;2.380;2023-01-01T00:50:49;17.60;62.10
4209;DHT22;36320;48.860;2.380;2023-01-01T00:53:16;17.50;62.20
4209;DHT22;36320;48.860;2.380;2023-01-01T00:55:42;17.50;62.30
4209;DHT22;36320;48.860;2.380;2023-01-01T00:58:08;17.60;62.40
4209;DHT22;36320;48.860;2.380;2023-01-01T01:00:35;17.60;62.40
4209;DHT22;36320;48.860;2.380;2023-01-01T01:03:01;17.60;62.40
4209;DHT22;36320;48.860;2.380;2023-01-01T01:05:27;17.50;62.50
4209;DHT22;36320;48.860;2.380;2023-01-01T01:07:53;17.40;62.80
4209;DHT22;36320;48.860;2.380;2023-01-01T01:10:19;17.60;63.00
4209;DHT22;36320;48.860;2.380;2023-01-01T01:12:46;17.60;62.90
4209;DHT22;36320;48.860;2.380;2023-01-01T01:15:13;17.60;62.90
4209;DHT22;36320;48.860;2.380;2023-01-01T01:17:40;17.50;63.10
4209;DHT22;36320;48.860;2.380;2023-01-01T01:20:06;17.60;63.30
4209;DHT22;36320;48.860;2.380;2023-01-01T01:22:33;17.60;63.40
4209;DHT22;36320;48.860;2.380;2023-01-01T01:24:59;17.50;63.50
4209;DHT22;36320;48.860;2.380;2023-01-01T01:27:25;17.50;63.70
4209;DHT22;36320;48.860;2.380;2023-01-01T01:29:51;17.50;63.90
4209;DHT22;36320;48.860;2.380;2023-01-01T01:32:18;17.50;64.00
4209;DHT22;36320;48.860;2.380;2023-01-01T01:34:44;17.50;64.00
4209;DHT22;36320;48.860;2.380;2023-01-01T01:37:10;17.50;64.20
4209;DHT22;36320;48.860;2.380;2023-01-01T01:39:36;17.60;64.30
4209;DHT22;36320;48.860;2.380;2023-01-01T01:42:03;17.50;64.50
4209;DHT22;36320;48.860;2.380;2023-01-01T01:47:33;17.50;64.80
4209;DHT22;36320;48.860;2.380;2023-01-01T01:52:34;17.30;65.80
4209;DHT22;36320;48.860;2.380;2023-01-01T01:55:02;17.20;65.30
4209;DHT22;36320;48.860;2.380;2023-01-01T01:57:28;17.40;65.50
4209;DHT22;36320;48.860;2.380;2023-01-01T01:59:56;17.40;65.60
4209;DHT22;36320;48.860;2.380;2023-01-01T02:02:36;17.40;65.80
4209;DHT22;36320;48.860;2.380;2023-01-01T02:05:03;17.50;65.90
4209;DHT22;36320;48.860;2.380;2023-01-01T02:07:30;17.50;65.90
4209;DHT22;36320;48.860;2.380;2023-01-01T02:09:57;17.40;66.00
4209;DHT22;36320;48.860;2.380;2023-01-01T02:12:25;17.50;66.20
4209;DHT22;36320;48.860;2.380;2023-01-01T02:14:51;17.50;66.00
4209;DHT22;36320;48.860;2.380;2023-01-01T02:17:23;17.60;66.10
4209;DHT22;36320;48.860;2.380;2023-01-01T02:30:24;17.40;66.70
4209;DHT22;36320;48.860;2.380;2023-01-01T02:33:01;17.40;66.80
4209;DHT22;36320;48.860;2.380;2023-01-01T02:35:36;17.50;66.80
4209;DHT22;36320;48.860;2.380;2023-01-01T02:38:25;17.50;66.90
4209;DHT22;36320;48.860;2.380;2023-01-01T02:41:13;17.30;67.30
4209;DHT22;36320;48.860;2.380;2023-01-01T02:43:41;17.30;67.30
4209;DHT22;36320;48.860;2.380;2023-01-01T02:46:08;17.30;67.60
4209;DHT22;36320;48.860;2.380;2023-01-01T02:48:48;17.30;67.70
4209;DHT22;36320;48.860;2.380;2023-01-01T02:57:15;17.30;68.10
4209;DHT22;36320;48.860;2.380;2023-01-01T03:03:39;17.10;68.60
4209;DHT22;36320;48.860;2.380;2023-01-01T03:11:45;17.10;69.20
4209;DHT22;36320;48.860;2.380;2023-01-01T03:16:52;17.00;69.30
4209;DHT22;36320;48.860;2.380;2023-01-01T03:19:24;17.10;69.40
4209;DHT22;36320;48.860;2.380;2023-01-01T03:22:06;17.10;69.50
4209;DHT22;36320;48.860;2.380;2023-01-01T03:27:29;17.20;70.00
4209;DHT22;36320;48.860;2.380;2023-01-01T03:29:58;17.20;69.20
4209;DHT22;36320;48.860;2.380;2023-01-01T03:32:33;17.30;69.10
4209;DHT22;36320;48.860;2.380;2023-01-01T03:35:21;17.30;69.30
4209;DHT22;36320;48.860;2.380;2023-01-01T03:37:49;17.20;69.40
4209;DHT22;36320;48.860;2.380;2023-01-01T03:40:18;17.10;69.60
4209;DHT22;36320;48.860;2.380;2023-01-01T03:42:52;17.20;69.60
4209;DHT22;36320;48.860;2.380;2023-01-01T03:45:24;17.20;69.40
4209;DHT22;36320;48.860;2.380;2023-01-01T03:47:52;17.20;69.60
4209;DHT22;36320;48.860;2.380;2023-01-01T03:50:21;17.10;69.90
4209;DHT22;36320;48.860;2.380;2023-01-01T03:52:55;17.10;70.00
4209;DHT22;36320;48.860;2.380;2023-01-01T03:55:37;17.10;70.20
4209;DHT22;36320;48.860;2.380;2023-01-01T03:58:30;17.10;70.10
4209;DHT22;36320;48.860;2.380;2023-01-01T04:03:48;17.00;70.60
4209;DHT22;36320;48.860;2.380;2023-01-01T04:06:16;17.00;70.80
4209;DHT22;36320;48.860;2.380;2023-01-01T04:08:42;17.00;70.80
4209;DHT22;36320;48.860;2.380;2023-01-01T04:11:17;16.90;71.00
4209;DHT22;36320;48.860;2.380;2023-01-01T04:14:03;16.90;71.00
4209;DHT22;36320;48.860;2.380;2023-01-01T04:16:29;17.00;71.00
4209;DHT22;36320;48.860;2.380;2023-01-01T04:18:56;17.00;71.20
4209;DHT22;36320;48.860;2.380;2023-01-01T04:21:21;16.90;71.20
4209;DHT22;36320;48.860;2.380;2023-01-01T04:23:47;17.10;71.20
4209;DHT22;36320;48.860;2.380;2023-01-01T04:26:13;17.10;71.10
4209;DHT22;36320;48.860;2.380;2023-01-01T04:28:40;17.20;71.10
4209;DHT22;36320;48.860;2.380;2023-01-01T04:31:07;15.40;69.30
4209;DHT22;36320;48.860;2.380;2023-01-01T04:33:32;17.10;71.10
4209;DHT22;36320;48.860;2.380;2023-01-01T04:36:08;17.10;71.10
4209;DHT22;36320;48.860;2.380;2023-01-01T04:38:35;17.00;71.30
4209;DHT22;36320;48.860;2.380;2023-01-01T04:41:02;17.00;71.40
4209;DHT22;36320;48.860;2.380;2023-01-01T04:43:30;17.00;71.50
4209;DHT22;36320;48.860;2.380;2023-01-01T04:46:01;17.00;71.60
4209;DHT22;36320;48.860;2.380;2023-01-01T04:48:28;17.10;71.70
4209;DHT22;36320;48.860;2.380;2023-01-01T04:50:56;17.00;71.50
4209;DHT22;36320;48.860;2.380;2023-01-01T04:53:22;17.00;71.70
4209;DHT22;36320;48.860;2.380;2023-01-01T04:55:48;16.90;72.20
4209;DHT22;36320;48.860;2.380;2023-01-01T04:58:14;16.70;72.40
4209;DHT22;36320;48.860;2.380;2023-01-01T05:00:40;16.70;72.80
4209;DHT22;36320;48.860;2.380;2023-01-01T05:03:06;16.80;72.70
4209;DHT22;36320;48.860;2.380;2023-01-01T05:05:31;16.80;72.70
4209;DHT22;36320;48.860;2.380;2023-01-01T05:07:57;16.80;72.90
4209;DHT22;36320;48.860;2.380;2023-01-01T05:10:23;16.90;72.80
4209;DHT22;36320;48.860;2.380;2023-01-01T05:12:48;16.90;72.70
4209;DHT22;36320;48.860;2.380;2023-01-01T05:15:14;16.90;72.70
4209;DHT22;36320;48.860;2.380;2023-01-01T05:17:40;16.80;72.80
4209;DHT22;36320;48.860;2.380;2023-01-01T05:20:06;16.80;73.10
4209;DHT22;36320;48.860;2.380;2023-01-01T05:22:32;16.90;73.30
4209;DHT22;36320;48.860;2.380;2023-01-01T05:24:57;16.90;73.10
4209;DHT22;36320;48.860;2.380;2023-01-01T05:27:23;16.90;73.00
4209;DHT22;36320;48.860;2.380;2023-01-01T05:29:49;17.00;73.20
4209;DHT22;36320;48.860;2.380;2023-01-01T05:32:14;17.00;73.40
4209;DHT22;36320;48.860;2.380;2023-01-01T05:34:40;16.90;73.40
4209;DHT22;36320;48.860;2.380;2023-01-01T05:37:06;16.90;73.40
4209;DHT22;36320;48.860;2.380;2023-01-01T05:39:31;16.90;73.40
4209;DHT22;36320;48.860;2.380;2023-01-01T05:41:57;16.90;73.60
4209;DHT22;36320;48.860;2.380;2023-01-01T05:44:23;16.90;73.90
4209;DHT22;36320;48.860;2.380;2023-01-01T05:46:48;16.90;73.90
4209;DHT22;36320;48.860;2.380;2023-01-01T05:49:14;16.90;74.00
4209;DHT22;36320;48.860;2.380;2023-01-01T05:51:40;16.80;73.90
4209;DHT22;36320;48.860;2.380;2023-01-01T05:54:06;16.80;73.90
4209;DHT22;36320;48.860;2.380;2023-01-01T05:56:32;16.90;74.00
4209;DHT22;36320;48.860;2.380;2023-01-01T05:58:57;16.90;74.00
4209;DHT22;36320;48.860;2.380;2023-01-01T06:01:25;16.80;74.10
4209;DHT22;36320;48.860;2.380;2023-01-01T06:03:53;16.80;74.20
4209;DHT22;36320;48.860;2.380;2023-01-01T06:06:22;16.70;74.50
4209;DHT22;36320;48.860;2.380;2023-01-01T06:08:57;16.70;74.60
4209;DHT22;36320;48.860;2.380;2023-01-01T06:11:23;16.70;74.70
4209;DHT22;36320;48.860;2.380;2023-01-01T06:13:54;16.80;74.40
4209;DHT22;36320;48.860;2.380;2023-01-01T06:16:20;16.70;74.60
4209;DHT22;36320;48.860;2.380;2023-01-01T06:18:47;16.70;74.60
4209;DHT22;36320;48.860;2.380;2023-01-01T06:21:15;16.80;74.60
4209;DHT22;36320;48.860;2.380;2023-01-01T06:23:41;16.60;74.70
4209;DHT22;36320;48.860;2.380;2023-01-01T06:26:16;16.80;74.90
4209;DHT22;36320;48.860;2.380;2023-01-01T06:28:44;16.80;74.90
4209;DHT22;36320;48.860;2.380;2023-01-01T06:31:13;16.80;74.80
4209;DHT22;36320;48.860;2.380;2023-01-01T06:33:45;16.70;74.90
4209;DHT22;36320;48.860;2.380;2023-01-01T06:36:22;16.60;75.00
4209;DHT22;36320;48.860;2.380;2023-01-01T06:38:51;16.60;75.20
4209;DHT22;36320;48.860;2.380;2023-01-01T06:41:56;16.60;75.20
4209;DHT22;36320;48.860;2.380;2023-01-01T06:44:15;16.70;75.10
4209;DHT22;36320;48.860;2.380;2023-01-01T06:46:41;16.70;75.20
4209;DHT22;36320;48.860;2.380;2023-01-01T06:49:12;16.70;75.20
4209;DHT22;36320;48.860;2.380;2023-01-01T06:51:40;16.50;75.30
4209;DHT22;36320;48.860;2.380;2023-01-01T06:54:06;16.60;75.50
4209;DHT22;36320;48.860;2.380;2023-01-01T06:56:35;15.90;74.60
4209;DHT22;36320;48.860;2.380;2023-01-01T06:59:03;16.70;75.50
4209;DHT22;36320;48.860;2.380;2023-01-01T07:01:32;16.70;75.30
4209;DHT22;36320;48.860;2.380;2023-01-01T07:04:00;16.70;75.30
4209;DHT22;36320;48.860;2.380;2023-01-01T07:06:28;16.90;75.10
4209;DHT22;36320;48.860;2.380;2023-01-01T07:08:58;16.90;75.30
4209;DHT22;36320;48.860;2.380;2023-01-01T07:11:24;16.90;75.10
4209;DHT22;36320;48.860;2.380;2023-01-01T07:13:59;16.90;75.10
4209;DHT22;36320;48.860;2.380;2023-01-01T07:16:26;16.80;75.10
4209;DHT22;36320;48.860;2.380;2023-01-01T07:18:52;16.80;75.40
4209;DHT22;36320;48.860;2.380;2023-01-01T07:24:05;16.80;75.40
4209;DHT22;36320;48.860;2.380;2023-01-01T07:26:32;16.80;75.30
4209;DHT22;36320;48.860;2.380;2023-01-01T07:28:58;16.80;75.40
4209;DHT22;36320;48.860;2.380;2023-01-01T07:31:24;16.70;75.70
4209;DHT22;36320;48.860;2.380;2023-01-01T07:33:49;16.60;76.00
4209;DHT22;36320;48.860;2.380;2023-01-01T07:36:15;16.50;76.20
4209;DHT22;36320;48.860;2.380;2023-01-01T07:38:41;16.40;76.50
4209;DHT22;36320;48.860;2.380;2023-01-01T07:41:07;16.50;76.60
4209;DHT22;36320;48.860;2.380;2023-01-01T07:43:32;16.50;76.60
4209;DHT22;36320;48.860;2.380;2023-01-01T07:45:58;16.60;76.60
4209;DHT22;36320;48.860;2.380;2023-01-01T07:48:24;16.50;76.70
4209;DHT22;36320;48.860;2.380;2023-01-01T07:50:50;16.40;76.80
4209;DHT22;36320;48.860;2.380;2023-01-01T07:53:16;16.40;76.90
4209;DHT22;36320;48.860;2.380;2023-01-01T07:55:42;16.40;76.90
4209;DHT22;36320;48.860;2.380;2023-01-01T07:58:09;16.50;77.00
4209;DHT22;36320;48.860;2.380;2023-01-01T08:00:35;16.50;77.10
4209;DHT22;36320;48.860;2.380;2023-01-01T08:03:01;16.50;77.10
4209;DHT22;36320;48.860;2.380;2023-01-01T08:05:27;16.40;77.10
4209;DHT22;36320;48.860;2.380;2023-01-01T08:07:53;16.40;77.10
4209;DHT22;36320;48.860;2.380;2023-01-01T08:10:19;16.50;77.20
4209;DHT22;36320;48.860;2.380;2023-01-01T08:12:45;16.50;77.10
4209;DHT22;36320;48.860;2.380;2023-01-01T08:15:12;16.60;76.80
4209;DHT22;36320;48.860;2.380;2023-01-01T08:17:38;16.60;76.80
4209;DHT22;36320;48.860;2.380;2023-01-01T08:20:05;16.40;76.80
4209;DHT22;36320;48.860;2.380;2023-01-01T08:22:32;16.40;77.00
4209;DHT22;36320;48.860;2.380;2023-01-01T08:24:58;16.50;77.00
4209;DHT22;36320;48.860;2.380;2023-01-01T08:27:23;16.50;77.10
4209;DHT22;36320;48.860;2.380;2023-01-01T08:29:49;16.40;77.30
4209;DHT22;36320;48.860;2.380;2023-01-01T08:32:15;16.50;77.40
4209;DHT22;36320;48.860;2.380;2023-01-01T08:34:40;16.40;77.10
4209;DHT22;36320;48.860;2.380;2023-01-01T08:37:10;16.50;77.20
4209;DHT22;36320;48.860;2.380;2023-01-01T08:39:37;16.60;76.90
4209;DHT22;36320;48.860;2.380;2023-01-01T08:42:02;16.60;77.10
4209;DHT22;36320;48.860;2.380;2023-01-01T08:44:28;16.60;77.10
4209;DHT22;36320;48.860;2.380;2023-01-01T08:46:54;16.60;76.80
4209;DHT22;36320;48.860;2.380;2023-01-01T08:49:19;16.70;76.80
4209;DHT22;36320;48.860;2.380;2023-01-01T08:51:45;16.60;76.90
4209;DHT22;36320;48.860;2.380;2023-01-01T08:54:11;16.50;77.20
4209;DHT22;36320;48.860;2.380;2023-01-01T08:56:36;16.60;77.10
4209;DHT22;36320;48.860;2.380;2023-01-01T08:59:02;16.60;76.90
4209;DHT22;36320;48.860;2.380;2023-01-01T09:01:29;16.60;77.20
4209;DHT22;36320;48.860;2.380;2023-01-01T09:03:55;16.50;77.30
4209;DHT22;36320;48.860;2.380;2023-01-01T09:06:20;16.50;77.20
4209;DHT22;36320;48.860;2.380;2023-01-01T09:08:46;16.70;77.30
4209;DHT22;36320;48.860;2.380;2023-01-01T09:11:26;16.70;77.00
4209;DHT22;36320;48.860;2.380;2023-01-01T09:13:52;16.80;76.90
4209;DHT22;36320;48.860;2.380;2023-01-01T09:16:18;16.90;76.80
4209;DHT22;36320;48.860;2.380;2023-01-01T09:18:44;16.90;76.70
4209;DHT22;36320;48.860;2.380;2023-01-01T09:21:11;16.80;76.70
4209;DHT22;36320;48.860;2.380;2023-01-01T09:23:37;17.00;76.80
4209;DHT22;36320;48.860;2.380;2023-01-01T09:26:07;17.00;76.70
4209;DHT22;36320;48.860;2.380;2023-01-01T09:28:34;16.80;76.80
4209;DHT22;36320;48.860;2.380;2023-01-01T09:31:01;16.80;77.00
4209;DHT22;36320;48.860;2.380;2023-01-01T09:33:27;16.80;76.90
4209;DHT22;36320;48.860;2.380;2023-01-01T09:35:53;16.80;76.90
4209;DHT22;36320;48.860;2.380;2023-01-01T09:38:18;17.00;76.90
4209;DHT22;36320;48.860;2.380;2023-01-01T09:41:01;17.10;77.50
4209;DHT22;36320;48.860;2.380;2023-01-01T09:46:23;17.00;76.60
4209;DHT22;36320;48.860;2.380;2023-01-01T09:51:53;17.10;76.50
4209;DHT22;36320;48.860;2.380;2023-01-01T09:54:54;17.20;76.30
4209;DHT22;36320;48.860;2.380;2023-01-01T09:57:27;17.20;76.30
4209;DHT22;36320;48.860;2.380;2023-01-01T09:59:55;17.10;76.20
4209;DHT22;36320;48.860;2.380;2023-01-01T10:05:20;17.00;76.60
4209;DHT22;36320;48.860;2.380;2023-01-01T10:08:01;17.10;76.70
4209;DHT22;36320;48.860;2.380;2023-01-01T10:10:39;17.20;76.30
4209;DHT22;36320;48.860;2.380;2023-01-01T10:15:40;17.10;76.50
4209;DHT22;36320;48.860;2.380;2023-01-01T10:18:20;17.20;76.50
4209;DHT22;36320;48.860;2.380;2023-01-01T10:23:32;17.40;76.20
4209;DHT22;36320;48.860;2.380;2023-01-01T10:26:07;17.30;76.00
4209;DHT22;36320;48.860;2.380;2023-01-01T10:28:44;17.20;76.20
4209;DHT22;36320;48.860;2.380;2023-01-01T10:31:31;17.20;76.00
4209;DHT22;36320;48.860;2.380;2023-01-01T10:34:07;17.20;76.10
4209;DHT22;36320;48.860;2.380;2023-01-01T10:36:36;17.10;76.20
4209;DHT22;36320;48.860;2.380;2023-01-01T10:39:02;17.10;76.30
4209;DHT22;36320;48.860;2.380;2023-01-01T10:41:28;17.00;76.20
4209;DHT22;36320;48.860;2.380;2023-01-01T10:43:54;17.10;76.20
4209;DHT22;36320;48.860;2.380;2023-01-01T10:46:21;17.10;76.40
4209;DHT22;36320;48.860;2.380;2023-01-01T10:49:11;17.20;76.20
4209;DHT22;36320;48.860;2.380;2023-01-01T10:51:49;17.30;76.00
4209;DHT22;36320;48.860;2.380;2023-01-01T10:54:37;17.20;75.80
4209;DHT22;36320;48.860;2.380;2023-01-01T10:57:14;17.00;76.00
4209;DHT22;36320;48.860;2.380;2023-01-01T10:59:41;17.00;76.20
4209;DHT22;36320;48.860;2.380;2023-01-01T11:02:26;17.10;76.30
4209;DHT22;36320;48.860;2.380;2023-01-01T11:05:13;17.00;76.40
4209;DHT22;36320;48.860;2.380;2023-01-01T11:07:44;17.00;76.20
4209;DHT22;36320;48.860;2.380;2023-01-01T11:10:19;16.90;76.60
4209;DHT22;36320;48.860;2.380;2023-01-01T11:12:45;16.90;76.80
4209;DHT22;36320;48.860;2.380;2023-01-01T11:18:09;17.00;77.30
4209;DHT22;36320;48.860;2.380;2023-01-01T11:20:37;17.20;77.10
4209;DHT22;36320;48.860;2.380;2023-01-01T11:23:42;17.30;76.90
4209;DHT22;36320;48.860;2.380;2023-01-01T11:29:15;17.10;76.80
4209;DHT22;36320;48.860;2.380;2023-01-01T11:31:46;17.10;76.90
4209;DHT22;36320;48.860;2.380;2023-01-01T11:34:35;17.00;76.80
4209;DHT22;36320;48.860;2.380;2023-01-01T11:37:10;17.00;77.00
4209;DHT22;36320;48.860;2.380;2023-01-01T11:39:44;17.10;77.00
4209;DHT22;36320;48.860;2.380;2023-01-01T11:42:21;16.80;76.90
4209;DHT22;36320;48.860;2.380;2023-01-01T11:44:56;17.10;77.50
4209;DHT22;36320;48.860;2.380;2023-01-01T11:47:25;17.00;77.80
4209;DHT22;36320;48.860;2.380;2023-01-01T11:49:58;17.00;78.20
4209;DHT22;36320;48.860;2.380;2023-01-01T11:58:09;17.00;78.50
4209;DHT22;36320;48.860;2.380;2023-01-01T12:00:36;17.10;78.30
4209;DHT22;36320;48.860;2.380;2023-01-01T12:03:17;17.10;77.90
4209;DHT22;36320;48.860;2.380;2023-01-01T12:08:15;17.20;78.00
4209;DHT22;36320;48.860;2.380;2023-01-01T12:10:50;17.20;77.80
4209;DHT22;36320;48.860;2.380;2023-01-01T12:13:21;17.10;77.50
4209;DHT22;36320;48.860;2.380;2023-01-01T12:16:05;17.10;78.10
4209;DHT22;36320;48.860;2.380;2023-01-01T12:18:43;17.10;77.90
4209;DHT22;36320;48.860;2.380;2023-01-01T12:21:29;17.00;78.10
4209;DHT22;36320;48.860;2.380;2023-01-01T12:23:57;16.90;78.30
4209;DHT22;36320;48.860;2.380;2023-01-01T12:43:07;17.10;78.20
4209;DHT22;36320;48.860;2.380;2023-01-01T12:48:43;17.10;78.60
4209;DHT22;36320;48.860;2.380;2023-01-01T12:59:19;17.10;79.80
4209;DHT22;36320;48.860;2.380;2023-01-01T13:01:48;17.20;80.00
4209;DHT22;36320;48.860;2.380;2023-01-01T13:04:17;17.20;80.30
4209;DHT22;36320;48.860;2.380;2023-01-01T13:07:01;17.10;80.50
4209;DHT22;36320;48.860;2.380;2023-01-01T13:09:36;17.10;80.90
4209;DHT22;36320;48.860;2.380;2023-01-01T13:12:12;17.10;81.10
4209;DHT22;36320;48.860;2.380;2023-01-01T13:14:41;17.10;81.30
4209;DHT22;36320;48.860;2.380;2023-01-01T13:17:27;17.10;81.70
4209;DHT22;36320;48.860;2.380;2023-01-01T13:33:24;17.00;82.90
4209;DHT22;36320;48.860;2.380;2023-01-01T13:38:51;17.00;83.30
4209;DHT22;36320;48.860;2.380;2023-01-01T13:43:53;16.90;83.40
4209;DHT22;36320;48.860;2.380;2023-01-01T14:02:59;16.80;84.60
4209;DHT22;36320;48.860;2.380;2023-01-01T14:05:28;16.90;84.90
4209;DHT22;36320;48.860;2.380;2023-01-01T14:07:56;16.70;84.80
4209;DHT22;36320;48.860;2.380;2023-01-01T14:10:23;16.70;85.00
4209;DHT22;36320;48.860;2.380;2023-01-01T14:12:51;16.70;85.30
4209;DHT22;36320;48.860;2.380;2023-01-01T14:17:50;16.70;85.30
4209;DHT22;36320;48.860;2.380;2023-01-01T14:20:18;16.70;85.50
4209;DHT22;36320;48.860;2.380;2023-01-01T14:22:46;16.60;85.40
4209;DHT22;36320;48.860;2.380;2023-01-01T14:25:27;16.60;85.40
4209;DHT22;36320;48.860;2.380;2023-01-01T14:27:57;16.50;85.40
4209;DHT22;36320;48.860;2.380;2023-01-01T14:30:24;16.60;85.60
4209;DHT22;36320;48.860;2.380;2023-01-01T14:33:00;16.50;85.60
4209;DHT22;36320;48.860;2.380;2023-01-01T14:35:28;16.40;85.60
4209;DHT22;36320;48.860;2.380;2023-01-01T14:37:54;16.40;85.70
4209;DHT22;36320;48.860;2.380;2023-01-01T14:40:26;16.40;85.80
4209;DHT22;36320;48.860;2.380;2023-01-01T14:43:08;16.50;86.00
4209;DHT22;36320;48.860;2.380;2023-01-01T14:45:42;16.50;86.20
4209;DHT22;36320;48.860;2.380;2023-01-01T14:48:17;16.50;86.20
4209;DHT22;36320;48.860;2.380;2023-01-01T14:50:48;16.40;86.30
4209;DHT22;36320;48.860;2.380;2023-01-01T14:53:16;16.40;86.50
4209;DHT22;36320;48.860;2.380;2023-01-01T14:55:46;16.30;86.50
4209;DHT22;36320;48.860;2.380;2023-01-01T14:58:17;16.40;86.70
4209;DHT22;36320;48.860;2.380;2023-01-01T15:00:44;16.40;86.70
4209;DHT22;36320;48.860;2.380;2023-01-01T15:03:16;16.40;86.70
4209;DHT22;36320;48.860;2.380;2023-01-01T15:05:43;16.40;86.70
4209;DHT22;36320;48.860;2.380;2023-01-01T15:08:23;16.30;86.60
4209;DHT22;36320;48.860;2.380;2023-01-01T15:10:50;16.30;86.70
4209;DHT22;36320;48.860;2.380;2023-01-01T15:13:22;16.30;86.80
4209;DHT22;36320;48.860;2.380;2023-01-01T15:15:50;16.30;86.90
4209;DHT22;36320;48.860;2.380;2023-01-01T15:18:40;16.40;87.00
4209;DHT22;36320;48.860;2.380;2023-01-01T15:23:51;15.90;86.70
4209;DHT22;36320;48.860;2.380;2023-01-01T15:26:28;16.30;87.10
4209;DHT22;36320;48.860;2.380;2023-01-01T15:28:58;16.30;87.10
4209;DHT22;36320;48.860;2.380;2023-01-01T15:32:02;16.20;86.90
4209;DHT22;36320;48.860;2.380;2023-01-01T15:34:37;15.80;86.50
4209;DHT22;36320;48.860;2.380;2023-01-01T15:37:13;16.30;86.90
4209;DHT22;36320;48.860;2.380;2023-01-01T15:42:32;16.30;86.80
4209;DHT22;36320;48.860;2.380;2023-01-01T15:45:21;16.20;86.60
4209;DHT22;36320;48.860;2.380;2023-01-01T15:48:24;16.20;86.70
4209;DHT22;36320;48.860;2.380;2023-01-01T15:53:26;16.10;86.50
4209;DHT22;36320;48.860;2.380;2023-01-01T15:55:59;16.10;86.40
4209;DHT22;36320;48.860;2.380;2023-01-01T15:58:34;16.10;86.40
4209;DHT22;36320;48.860;2.380;2023-01-01T16:01:04;16.20;86.50
4209;DHT22;36320;48.860;2.380;2023-01-01T16:03:32;16.20;86.30
4209;DHT22;36320;48.860;2.380;2023-01-01T16:05:58;16.20;86.20
4209;DHT22;36320;48.860;2.380;2023-01-01T16:08:24;16.10;86.10
4209;DHT22;36320;48.860;2.380;2023-01-01T16:10:51;16.10;86.10
4209;DHT22;36320;48.860;2.380;2023-01-01T16:13:17;16.10;85.90
4209;DHT22;36320;48.860;2.380;2023-01-01T16:15:55;16.10;85.90
4209;DHT22;36320;48.860;2.380;2023-01-01T16:18:36;16.10;85.90
4209;DHT22;36320;48.860;2.380;2023-01-01T16:21:04;16.10;85.80
4209;DHT22;36320;48.860;2.380;2023-01-01T16:23:30;15.90;85.90
4209;DHT22;36320;48.860;2.380;2023-01-01T16:25:56;15.80;86.30
4209;DHT22;36320;48.860;2.380;2023-01-01T16:28:21;15.90;86.40
4209;DHT22;36320;48.860;2.380;2023-01-01T16:30:48;16.00;86.10
4209;DHT22;36320;48.860;2.380;2023-01-01T16:33:19;16.00;85.90
4209;DHT22;36320;48.860;2.380;2023-01-01T16:35:47;16.10;85.80
4209;DHT22;36320;48.860;2.380;2023-01-01T16:38:13;16.70;86.20
4209;DHT22;36320;48.860;2.380;2023-01-01T16:40:38;16.20;85.70
4209;DHT22;36320;48.860;2.380;2023-01-01T16:43:04;16.10;85.50
4209;DHT22;36320;48.860;2.380;2023-01-01T16:45:34;16.20;85.40
4209;DHT22;36320;48.860;2.380;2023-01-01T16:48:01;16.20;85.30
4209;DHT22;36320;48.860;2.380;2023-01-01T16:50:27;16.10;85.30
4209;DHT22;36320;48.860;2.380;2023-01-01T16:52:53;16.00;85.90
4209;DHT22;36320;48.860;2.380;2023-01-01T16:55:20;15.90;86.30
4209;DHT22;36320;48.860;2.380;2023-01-01T16:57:47;16.00;86.10
4209;DHT22;36320;48.860;2.380;2023-01-01T17:00:13;16.10;86.10
4209;DHT22;36320;48.860;2.380;2023-01-01T17:02:39;16.20;85.90
4209;DHT22;36320;48.860;2.380;2023-01-01T17:05:05;16.20;85.70
4209;DHT22;36320;48.860;2.380;2023-01-01T17:07:31;16.20;85.60
4209;DHT22;36320;48.860;2.380;2023-01-01T17:09:56;16.20;85.40
4209;DHT22;36320;48.860;2.380;2023-01-01T17:12:22;16.30;85.50
4209;DHT22;36320;48.860;2.380;2023-01-01T17:14:48;16.30;85.40
4209;DHT22;36320;48.860;2.380;2023-01-01T17:17:14;16.30;85.30
4209;DHT22;36320;48.860;2.380;2023-01-01T17:19:40;16.30;85.20
4209;DHT22;36320;48.860;2.380;2023-01-01T17:22:06;16.30;85.00
4209;DHT22;36320;48.860;2.380;2023-01-01T17:24:31;16.30;85.10
4209;DHT22;36320;48.860;2.380;2023-01-01T17:26:57;16.30;85.10
4209;DHT22;36320;48.860;2.380;2023-01-01T17:29:23;16.30;85.10
4209;DHT22;36320;48.860;2.380;2023-01-01T17:31:49;16.30;85.20
4209;DHT22;36320;48.860;2.380;2023-01-01T17:34:15;16.30;85.10
4209;DHT22;36320;48.860;2.380;2023-01-01T17:36:43;16.40;85.00
4209;DHT22;36320;48.860;2.380;2023-01-01T17:39:11;16.30;85.00
4209;DHT22;36320;48.860;2.380;2023-01-01T17:41:38;16.40;84.90
4209;DHT22;36320;48.860;2.380;2023-01-01T17:44:04;16.40;85.00
4209;DHT22;36320;48.860;2.380;2023-01-01T17:46:30;16.40;84.90
4209;DHT22;36320;48.860;2.380;2023-01-01T17:48:58;16.40;84.70
4209;DHT22;36320;48.860;2.380;2023-01-01T17:51:24;16.40;84.80
4209;DHT22;36320;48.860;2.380;2023-01-01T17:53:50;16.40;84.70
4209;DHT22;36320;48.860;2.380;2023-01-01T17:56:17;16.40;84.70
4209;DHT22;36320;48.860;2.380;2023-01-01T17:58:45;16.40;84.60
4209;DHT22;36320;48.860;2.380;2023-01-01T18:01:16;17.40;85.60
4209;DHT22;36320;48.860;2.380;2023-01-01T18:03:50;16.50;84.80
4209;DHT22;36320;48.860;2.380;2023-01-01T18:06:16;16.50;84.60
4209;DHT22;36320;48.860;2.380;2023-01-01T18:08:42;16.40;84.70
4209;DHT22;36320;48.860;2.380;2023-01-01T18:11:08;16.50;84.80
4209;DHT22;36320;48.860;2.380;2023-01-01T18:13:34;16.50;84.70
4209;DHT22;36320;48.860;2.380;2023-01-01T18:16:01;16.40;84.60
4209;DHT22;36320;48.860;2.380;2023-01-01T18:18:28;16.40;84.60
4209;DHT22;36320;48.860;2.380;2023-01-01T18:23:34;16.50;84.60
4209;DHT22;36320;48.860;2.380;2023-01-01T18:26:05;16.50;84.50
4209;DHT22;36320;48.860;2.380;2023-01-01T18:28:31;16.50;84.50